DLH1FL BIKF-EDDF
Flight info
| Callsign | DLH1FL |
|---|---|
| Flight time | 3h 5m |
| Altitude | 35000 |
| Route | OSKUM3A OSKUM DCT RATSU/N0450F350 DCT DEVBI DCT LONAM DCT SOGPO DCT DIXAT DIXAT1A |
| Aircraft | A321/M-SDE3FGHIRWY/LB1 |
Departure
| Time | 2026-05-06 10:20 |
|---|---|
| Airport | Keflavik International Airport (BIKF) |
Arrival
| Time | 2026-05-06 13:26 |
|---|---|
| Airport | Frankfurt Main Airport (EDDF) |
| Time | Latitude | Longitude | Altitude | Speed | Heading |
|---|---|---|---|---|---|
| 2026-05-06 09:32 | 63.99273 | -22.62572 | 143 ft | 0 kts | 51° |
| 2026-05-06 10:06 | 63.99262 | -22.62601 | 142 ft | 3 kts | 51° |
| 2026-05-06 10:06 | 63.99251 | -22.62633 | 142 ft | 1 kts | 50° |
| 2026-05-06 10:06 | 63.99241 | -22.62664 | 142 ft | 3 kts | 82° |
| 2026-05-06 10:07 | 63.99244 | -22.62695 | 142 ft | 3 kts | 137° |
| 2026-05-06 10:07 | 63.99259 | -22.62724 | 142 ft | 3 kts | 150° |
| 2026-05-06 10:07 | 63.99277 | -22.62741 | 142 ft | 3 kts | 170° |
| 2026-05-06 10:07 | 63.99293 | -22.62745 | 142 ft | 0 kts | 180° |
| 2026-05-06 10:10 | 63.99287 | -22.62745 | 142 ft | 2 kts | 180° |
| 2026-05-06 10:10 | 63.99263 | -22.62727 | 142 ft | 6 kts | 150° |
| 2026-05-06 10:10 | 63.99214 | -22.62676 | 142 ft | 8 kts | 174° |
| 2026-05-06 10:10 | 63.99173 | -22.62602 | 142 ft | 10 kts | 98° |
| 2026-05-06 10:11 | 63.99173 | -22.62421 | 142 ft | 13 kts | 90° |
| 2026-05-06 10:11 | 63.99173 | -22.62269 | 142 ft | 16 kts | 89° |
| 2026-05-06 10:11 | 63.99173 | -22.61993 | 143 ft | 19 kts | 89° |
| 2026-05-06 10:11 | 63.99174 | -22.61683 | 148 ft | 19 kts | 90° |
| 2026-05-06 10:12 | 63.99173 | -22.61393 | 154 ft | 16 kts | 90° |
| 2026-05-06 10:12 | 63.99162 | -22.61168 | 160 ft | 12 kts | 125° |
| 2026-05-06 10:12 | 63.99074 | -22.61126 | 163 ft | 15 kts | 179° |
| 2026-05-06 10:12 | 63.98950 | -22.61124 | 163 ft | 21 kts | 180° |
| 2026-05-06 10:13 | 63.98782 | -22.61125 | 163 ft | 27 kts | 180° |
| 2026-05-06 10:13 | 63.98580 | -22.61125 | 164 ft | 30 kts | 180° |
| 2026-05-06 10:13 | 63.98374 | -22.61126 | 159 ft | 30 kts | 180° |
| 2026-05-06 10:13 | 63.98217 | -22.61128 | 161 ft | 19 kts | 180° |
| 2026-05-06 10:14 | 63.98130 | -22.60980 | 166 ft | 14 kts | 131° |
| 2026-05-06 10:14 | 63.98022 | -22.60940 | 168 ft | 20 kts | 180° |
| 2026-05-06 10:14 | 63.97869 | -22.60941 | 169 ft | 22 kts | 180° |
| 2026-05-06 10:14 | 63.97712 | -22.60940 | 169 ft | 23 kts | 180° |
| 2026-05-06 10:15 | 63.97547 | -22.60940 | 166 ft | 24 kts | 180° |
| 2026-05-06 10:15 | 63.97374 | -22.60942 | 163 ft | 26 kts | 180° |
| 2026-05-06 10:15 | 63.97185 | -22.60941 | 157 ft | 29 kts | 180° |
| 2026-05-06 10:15 | 63.96976 | -22.60940 | 150 ft | 31 kts | 180° |
| 2026-05-06 10:16 | 63.96747 | -22.60940 | 141 ft | 33 kts | 180° |
| 2026-05-06 10:16 | 63.96584 | -22.60942 | 135 ft | 24 kts | 181° |
| 2026-05-06 10:16 | 63.96475 | -22.60917 | 135 ft | 12 kts | 137° |
| 2026-05-06 10:16 | 63.96461 | -22.60760 | 139 ft | 8 kts | 90° |
| 2026-05-06 10:17 | 63.96461 | -22.60674 | 142 ft | 3 kts | 90° |
| 2026-05-06 10:17 | 63.96461 | -22.60620 | 143 ft | 4 kts | 89° |
| 2026-05-06 10:17 | 63.96461 | -22.60602 | 143 ft | 0 kts | 89° |
| 2026-05-06 10:17 | 63.96461 | -22.60600 | 144 ft | 1 kts | 89° |
| 2026-05-06 10:18 | 63.96467 | -22.60551 | 144 ft | 4 kts | 52° |
| 2026-05-06 10:18 | 63.96488 | -22.60543 | 145 ft | 0 kts | 359° |
| 2026-05-06 10:19 | 63.96500 | -22.60544 | 146 ft | 10 kts | 359° |
| 2026-05-06 10:19 | 63.96807 | -22.60539 | 156 ft | 78 kts | 0° |
| 2026-05-06 10:20 | 63.97562 | -22.60538 | 174 ft | 136 kts | 360° |
| 2026-05-06 10:20 | 63.98584 | -22.60573 | 748 ft | 145 kts | 5° |
| 2026-05-06 10:20 | 63.99594 | -22.60595 | 1504 ft | 147 kts | 8° |
| 2026-05-06 10:20 | 64.00680 | -22.60580 | 1833 ft | 166 kts | 8° |
| 2026-05-06 10:21 | 64.01907 | -22.60545 | 2069 ft | 187 kts | 7° |
| 2026-05-06 10:21 | 64.03221 | -22.60520 | 2547 ft | 194 kts | 6° |
| 2026-05-06 10:21 | 64.04590 | -22.60482 | 3176 ft | 195 kts | 12° |
| 2026-05-06 10:21 | 64.05793 | -22.59295 | 3724 ft | 190 kts | 49° |
| 2026-05-06 10:22 | 64.06365 | -22.56531 | 4059 ft | 207 kts | 83° |
| 2026-05-06 10:22 | 64.06386 | -22.53050 | 4294 ft | 230 kts | 88° |
| 2026-05-06 10:22 | 64.06367 | -22.49309 | 4895 ft | 239 kts | 89° |
| 2026-05-06 10:22 | 64.06342 | -22.45472 | 5556 ft | 245 kts | 88° |
| 2026-05-06 10:23 | 64.06147 | -22.41596 | 6173 ft | 254 kts | 102° |
| 2026-05-06 10:23 | 64.05402 | -22.37869 | 6869 ft | 262 kts | 117° |
| 2026-05-06 10:23 | 64.04486 | -22.34219 | 7541 ft | 265 kts | 115° |
| 2026-05-06 10:23 | 64.03571 | -22.30551 | 8275 ft | 267 kts | 115° |
| 2026-05-06 10:24 | 64.02651 | -22.26860 | 8961 ft | 270 kts | 114° |
| 2026-05-06 10:24 | 64.01716 | -22.23104 | 9657 ft | 274 kts | 115° |
| 2026-05-06 10:24 | 64.00771 | -22.19319 | 10357 ft | 276 kts | 116° |
| 2026-05-06 10:24 | 63.99791 | -22.15395 | 10605 ft | 295 kts | 116° |
| 2026-05-06 10:25 | 63.98738 | -22.11172 | 10757 ft | 316 kts | 116° |
| 2026-05-06 10:25 | 63.97625 | -22.06734 | 11001 ft | 329 kts | 116° |
| 2026-05-06 10:25 | 63.96473 | -22.02167 | 11549 ft | 333 kts | 117° |
| 2026-05-06 10:25 | 63.95309 | -21.97558 | 12170 ft | 335 kts | 116° |
| 2026-05-06 10:26 | 63.94157 | -21.93005 | 12787 ft | 338 kts | 116° |
| 2026-05-06 10:26 | 63.92970 | -21.88342 | 13360 ft | 341 kts | 115° |
| 2026-05-06 10:26 | 63.91781 | -21.83669 | 13992 ft | 343 kts | 117° |
| 2026-05-06 10:26 | 63.90579 | -21.78931 | 14488 ft | 347 kts | 117° |
| 2026-05-06 10:27 | 63.89372 | -21.74181 | 15063 ft | 348 kts | 116° |
| 2026-05-06 10:27 | 63.88159 | -21.69436 | 15624 ft | 349 kts | 116° |
| 2026-05-06 10:27 | 63.86933 | -21.64659 | 16175 ft | 350 kts | 116° |
| 2026-05-06 10:27 | 63.85705 | -21.59867 | 16702 ft | 353 kts | 116° |
| 2026-05-06 10:28 | 63.84470 | -21.55037 | 17240 ft | 355 kts | 117° |
| 2026-05-06 10:28 | 63.83228 | -21.50192 | 17777 ft | 357 kts | 117° |
| 2026-05-06 10:28 | 63.81987 | -21.45374 | 18288 ft | 360 kts | 117° |
| 2026-05-06 10:28 | 63.80706 | -21.40430 | 18745 ft | 364 kts | 117° |
| 2026-05-06 10:29 | 63.79420 | -21.35496 | 19222 ft | 364 kts | 117° |
| 2026-05-06 10:29 | 63.78129 | -21.30546 | 19640 ft | 366 kts | 117° |
| 2026-05-06 10:29 | 63.76928 | -21.25465 | 20093 ft | 364 kts | 109° |
| 2026-05-06 10:29 | 63.76128 | -21.20038 | 20507 ft | 364 kts | 100° |
| 2026-05-06 10:30 | 63.75732 | -21.14448 | 20905 ft | 365 kts | 95° |
| 2026-05-06 10:30 | 63.75393 | -21.08761 | 21348 ft | 367 kts | 96° |
| 2026-05-06 10:30 | 63.75039 | -21.03034 | 21657 ft | 372 kts | 96° |
| 2026-05-06 10:30 | 63.74669 | -20.97205 | 22051 ft | 374 kts | 96° |
| 2026-05-06 10:31 | 63.74297 | -20.91380 | 22497 ft | 376 kts | 96° |
| 2026-05-06 10:31 | 63.73920 | -20.85514 | 22938 ft | 377 kts | 96° |
| 2026-05-06 10:31 | 63.73541 | -20.79656 | 23394 ft | 378 kts | 96° |
| 2026-05-06 10:31 | 63.73161 | -20.73781 | 23814 ft | 379 kts | 96° |
| 2026-05-06 10:32 | 63.72777 | -20.67876 | 24135 ft | 381 kts | 96° |
| 2026-05-06 10:32 | 63.72388 | -20.61945 | 24413 ft | 384 kts | 96° |
| 2026-05-06 10:32 | 63.71993 | -20.55950 | 24685 ft | 388 kts | 96° |
| 2026-05-06 10:32 | 63.71599 | -20.49973 | 24955 ft | 390 kts | 96° |
| 2026-05-06 10:33 | 63.71015 | -20.43941 | 25224 ft | 395 kts | 105° |
| 2026-05-06 10:33 | 63.69993 | -20.38155 | 25483 ft | 401 kts | 112° |
| 2026-05-06 10:33 | 63.68817 | -20.32410 | 25751 ft | 404 kts | 112° |
| 2026-05-06 10:33 | 63.67642 | -20.26655 | 25984 ft | 407 kts | 112° |
| 2026-05-06 10:34 | 63.66449 | -20.20814 | 26238 ft | 409 kts | 112° |
| 2026-05-06 10:34 | 63.65264 | -20.15031 | 26495 ft | 412 kts | 112° |
| 2026-05-06 10:34 | 63.64053 | -20.09134 | 26746 ft | 415 kts | 112° |
| 2026-05-06 10:34 | 63.62838 | -20.03215 | 27000 ft | 418 kts | 112° |
| 2026-05-06 10:35 | 63.61608 | -19.97248 | 27243 ft | 421 kts | 112° |
| 2026-05-06 10:35 | 63.60371 | -19.91281 | 27484 ft | 423 kts | 112° |
| 2026-05-06 10:35 | 63.59117 | -19.85241 | 27679 ft | 427 kts | 112° |
| 2026-05-06 10:35 | 63.57854 | -19.79169 | 27895 ft | 431 kts | 112° |
| 2026-05-06 10:36 | 63.56581 | -19.73069 | 28085 ft | 434 kts | 112° |
| 2026-05-06 10:36 | 63.55289 | -19.66900 | 28315 ft | 437 kts | 113° |
| 2026-05-06 10:36 | 63.54004 | -19.60794 | 28528 ft | 440 kts | 113° |
| 2026-05-06 10:36 | 63.52689 | -19.54561 | 28760 ft | 442 kts | 114° |
| 2026-05-06 10:37 | 63.51369 | -19.48316 | 28979 ft | 444 kts | 113° |
| 2026-05-06 10:37 | 63.50042 | -19.42058 | 29168 ft | 447 kts | 113° |
| 2026-05-06 10:37 | 63.48699 | -19.35736 | 29353 ft | 450 kts | 114° |
| 2026-05-06 10:37 | 63.47346 | -19.29405 | 29549 ft | 452 kts | 114° |
| 2026-05-06 10:38 | 63.45983 | -19.23050 | 29728 ft | 454 kts | 114° |
| 2026-05-06 10:38 | 63.44615 | -19.16667 | 29886 ft | 456 kts | 114° |
| 2026-05-06 10:38 | 63.43238 | -19.10259 | 30051 ft | 458 kts | 114° |
| 2026-05-06 10:38 | 63.41852 | -19.03834 | 30234 ft | 459 kts | 114° |
| 2026-05-06 10:39 | 63.40460 | -18.97412 | 30444 ft | 459 kts | 114° |
| 2026-05-06 10:39 | 63.39059 | -18.90972 | 30605 ft | 460 kts | 114° |
| 2026-05-06 10:39 | 63.37662 | -18.84554 | 30759 ft | 462 kts | 114° |
| 2026-05-06 10:39 | 63.36254 | -18.78106 | 30896 ft | 463 kts | 115° |
| 2026-05-06 10:40 | 63.34842 | -18.71658 | 31072 ft | 463 kts | 115° |
| 2026-05-06 10:40 | 63.33439 | -18.65279 | 31240 ft | 463 kts | 115° |
| 2026-05-06 10:40 | 63.32016 | -18.58834 | 31414 ft | 464 kts | 114° |
| 2026-05-06 10:40 | 63.30594 | -18.52401 | 31589 ft | 465 kts | 115° |
| 2026-05-06 10:41 | 63.29161 | -18.45949 | 31737 ft | 465 kts | 114° |
| 2026-05-06 10:41 | 63.27726 | -18.39502 | 31905 ft | 465 kts | 115° |
| 2026-05-06 10:41 | 63.26284 | -18.33044 | 32113 ft | 465 kts | 115° |
| 2026-05-06 10:41 | 63.24842 | -18.26612 | 32265 ft | 466 kts | 115° |
| 2026-05-06 10:42 | 63.23390 | -18.20158 | 32413 ft | 466 kts | 115° |
| 2026-05-06 10:42 | 63.21934 | -18.13714 | 32542 ft | 468 kts | 115° |
| 2026-05-06 10:42 | 63.20492 | -18.07348 | 32679 ft | 468 kts | 115° |
| 2026-05-06 10:42 | 63.19029 | -18.00887 | 32822 ft | 469 kts | 116° |
| 2026-05-06 10:43 | 63.17559 | -17.94404 | 32961 ft | 470 kts | 116° |
| 2026-05-06 10:43 | 63.16079 | -17.87921 | 33123 ft | 471 kts | 116° |
| 2026-05-06 10:44 | 63.11640 | -17.68607 | 33161 ft | 470 kts | 116° |
| 2026-05-06 10:44 | 63.08677 | -17.55758 | 33168 ft | 469 kts | 116° |
| 2026-05-06 10:45 | 63.05694 | -17.42933 | 33151 ft | 471 kts | 116° |
| 2026-05-06 10:45 | 63.02705 | -17.30128 | 33143 ft | 467 kts | 117° |
| 2026-05-06 10:46 | 62.99723 | -17.17436 | 33125 ft | 468 kts | 117° |
| 2026-05-06 10:46 | 62.96711 | -17.04707 | 33124 ft | 470 kts | 117° |
| 2026-05-06 10:47 | 62.93676 | -16.91974 | 33150 ft | 470 kts | 117° |
| 2026-05-06 10:47 | 62.90625 | -16.79271 | 33124 ft | 472 kts | 117° |
| 2026-05-06 10:48 | 62.87556 | -16.66532 | 33121 ft | 472 kts | 117° |
| 2026-05-06 10:48 | 62.84487 | -16.53810 | 33150 ft | 472 kts | 118° |
| 2026-05-06 10:49 | 62.81408 | -16.41202 | 33117 ft | 473 kts | 118° |
| 2026-05-06 10:49 | 62.78298 | -16.28552 | 33129 ft | 473 kts | 118° |
| 2026-05-06 10:50 | 62.75180 | -16.15900 | 33115 ft | 473 kts | 118° |
| 2026-05-06 10:50 | 62.72054 | -16.03242 | 33106 ft | 474 kts | 118° |
| 2026-05-06 10:51 | 62.68911 | -15.90596 | 33130 ft | 474 kts | 118° |
| 2026-05-06 10:51 | 62.65745 | -15.77984 | 33127 ft | 474 kts | 119° |
| 2026-05-06 10:52 | 62.62562 | -15.65402 | 33108 ft | 475 kts | 119° |
| 2026-05-06 10:52 | 62.59380 | -15.52844 | 33111 ft | 474 kts | 119° |
| 2026-05-06 10:53 | 62.56205 | -15.40375 | 33087 ft | 475 kts | 120° |
| 2026-05-06 10:53 | 62.52986 | -15.27813 | 33093 ft | 477 kts | 120° |
| 2026-05-06 10:54 | 62.49744 | -15.15259 | 33104 ft | 477 kts | 120° |
| 2026-05-06 10:54 | 62.46494 | -15.02724 | 33090 ft | 478 kts | 120° |
| 2026-05-06 10:55 | 62.43219 | -14.90197 | 33084 ft | 479 kts | 120° |
| 2026-05-06 10:55 | 62.39943 | -14.77709 | 33110 ft | 477 kts | 120° |
| 2026-05-06 10:56 | 62.36682 | -14.65339 | 33078 ft | 478 kts | 120° |
| 2026-05-06 10:56 | 62.33380 | -14.52890 | 33073 ft | 478 kts | 121° |
| 2026-05-06 10:57 | 62.30082 | -14.40523 | 33084 ft | 477 kts | 121° |
| 2026-05-06 10:57 | 62.26764 | -14.28163 | 33072 ft | 477 kts | 121° |
| 2026-05-06 10:58 | 62.23433 | -14.15846 | 33077 ft | 477 kts | 121° |
| 2026-05-06 10:58 | 62.20103 | -14.03551 | 33086 ft | 477 kts | 121° |
| 2026-05-06 10:59 | 62.16778 | -13.91367 | 33079 ft | 477 kts | 122° |
| 2026-05-06 10:59 | 62.13414 | -13.79082 | 33068 ft | 477 kts | 122° |
| 2026-05-06 11:00 | 62.10055 | -13.66876 | 33079 ft | 477 kts | 122° |
| 2026-05-06 11:00 | 62.07250 | -13.56745 | 33071 ft | 477 kts | 122° |
| 2026-05-06 11:01 | 62.03865 | -13.44588 | 33074 ft | 476 kts | 122° |
| 2026-05-06 11:01 | 62.00471 | -13.32466 | 33080 ft | 476 kts | 122° |
| 2026-05-06 11:02 | 61.97064 | -13.20379 | 33071 ft | 476 kts | 122° |
| 2026-05-06 11:02 | 61.93641 | -13.08306 | 33070 ft | 476 kts | 122° |
| 2026-05-06 11:03 | 61.90219 | -12.96267 | 33053 ft | 476 kts | 123° |
| 2026-05-06 11:03 | 61.86805 | -12.84313 | 33043 ft | 477 kts | 123° |
| 2026-05-06 11:04 | 61.83352 | -12.72300 | 33046 ft | 478 kts | 123° |
| 2026-05-06 11:04 | 61.79872 | -12.60295 | 33047 ft | 479 kts | 123° |
| 2026-05-06 11:05 | 61.76383 | -12.48301 | 33053 ft | 479 kts | 123° |
| 2026-05-06 11:05 | 61.72896 | -12.36313 | 33059 ft | 479 kts | 123° |
| 2026-05-06 11:06 | 61.69391 | -12.24358 | 33059 ft | 479 kts | 123° |
| 2026-05-06 11:06 | 61.65865 | -12.12434 | 33044 ft | 480 kts | 124° |
| 2026-05-06 11:07 | 61.62318 | -12.00511 | 33038 ft | 481 kts | 124° |
| 2026-05-06 11:07 | 61.58787 | -11.88656 | 33042 ft | 482 kts | 124° |
| 2026-05-06 11:08 | 61.55223 | -11.76727 | 33048 ft | 482 kts | 124° |
| 2026-05-06 11:08 | 61.51637 | -11.64830 | 33049 ft | 482 kts | 124° |
| 2026-05-06 11:09 | 61.48041 | -11.52975 | 33053 ft | 483 kts | 124° |
| 2026-05-06 11:09 | 61.44429 | -11.41110 | 33048 ft | 483 kts | 124° |
| 2026-05-06 11:10 | 61.40814 | -11.29288 | 33026 ft | 484 kts | 125° |
| 2026-05-06 11:10 | 61.37169 | -11.17460 | 33038 ft | 485 kts | 124° |
| 2026-05-06 11:11 | 61.33537 | -11.05697 | 33043 ft | 485 kts | 125° |
| 2026-05-06 11:11 | 61.29873 | -10.93921 | 33050 ft | 485 kts | 125° |
| 2026-05-06 11:12 | 61.26195 | -10.82156 | 33058 ft | 485 kts | 125° |
| 2026-05-06 11:12 | 61.22512 | -10.70412 | 33053 ft | 485 kts | 125° |
| 2026-05-06 11:13 | 61.18816 | -10.58672 | 33062 ft | 485 kts | 125° |
| 2026-05-06 11:13 | 61.15127 | -10.47073 | 33055 ft | 485 kts | 126° |
| 2026-05-06 11:14 | 61.11410 | -10.35419 | 33074 ft | 485 kts | 126° |
| 2026-05-06 11:14 | 61.07683 | -10.23806 | 33072 ft | 484 kts | 126° |
| 2026-05-06 11:15 | 61.03952 | -10.12220 | 33068 ft | 484 kts | 126° |
| 2026-05-06 11:15 | 61.00254 | -10.00610 | 33062 ft | 485 kts | 121° |
| 2026-05-06 11:16 | 60.97318 | -9.88103 | 33022 ft | 486 kts | 116° |
| 2026-05-06 11:16 | 60.94463 | -9.75476 | 33021 ft | 487 kts | 116° |
| 2026-05-06 11:17 | 60.91586 | -9.62842 | 33051 ft | 488 kts | 116° |
| 2026-05-06 11:17 | 60.88702 | -9.50290 | 33052 ft | 488 kts | 117° |
| 2026-05-06 11:18 | 60.85786 | -9.37717 | 33054 ft | 488 kts | 117° |
| 2026-05-06 11:18 | 60.82862 | -9.25138 | 33061 ft | 488 kts | 117° |
| 2026-05-06 11:19 | 60.79937 | -9.12585 | 33063 ft | 489 kts | 117° |
| 2026-05-06 11:19 | 60.76985 | -9.00051 | 33063 ft | 488 kts | 117° |
| 2026-05-06 11:20 | 60.74017 | -8.87543 | 33045 ft | 489 kts | 117° |
| 2026-05-06 11:20 | 60.70785 | -8.75369 | 33053 ft | 487 kts | 128° |
| 2026-05-06 11:21 | 60.66530 | -8.64655 | 33069 ft | 486 kts | 132° |
| 2026-05-06 11:21 | 60.62209 | -8.54040 | 33066 ft | 487 kts | 132° |
| 2026-05-06 11:22 | 60.57883 | -8.43436 | 33062 ft | 487 kts | 132° |
| 2026-05-06 11:22 | 60.53551 | -8.32858 | 33070 ft | 487 kts | 133° |
| 2026-05-06 11:23 | 60.49206 | -8.22313 | 33020 ft | 487 kts | 133° |
| 2026-05-06 11:23 | 60.44838 | -8.11780 | 33027 ft | 489 kts | 133° |
| 2026-05-06 11:24 | 60.40480 | -8.01327 | 33070 ft | 489 kts | 133° |
| 2026-05-06 11:24 | 60.36095 | -7.90829 | 33075 ft | 488 kts | 133° |
| 2026-05-06 11:25 | 60.31714 | -7.80382 | 33075 ft | 488 kts | 133° |
| 2026-05-06 11:25 | 60.27315 | -7.69938 | 33080 ft | 488 kts | 133° |
| 2026-05-06 11:26 | 60.22916 | -7.59562 | 33034 ft | 488 kts | 133° |
| 2026-05-06 11:26 | 60.18503 | -7.49181 | 33040 ft | 488 kts | 133° |
| 2026-05-06 11:27 | 60.14069 | -7.38801 | 33045 ft | 489 kts | 133° |
| 2026-05-06 11:27 | 60.09649 | -7.28537 | 33053 ft | 489 kts | 133° |
| 2026-05-06 11:28 | 60.05190 | -7.18215 | 33062 ft | 490 kts | 133° |
| 2026-05-06 11:28 | 60.00723 | -7.07886 | 33071 ft | 490 kts | 133° |
| 2026-05-06 11:29 | 59.96254 | -6.97618 | 33031 ft | 490 kts | 134° |
| 2026-05-06 11:29 | 59.91763 | -6.87345 | 33041 ft | 492 kts | 134° |
| 2026-05-06 11:30 | 59.87277 | -6.77136 | 33051 ft | 492 kts | 134° |
| 2026-05-06 11:30 | 59.82753 | -6.66902 | 33062 ft | 493 kts | 134° |
| 2026-05-06 11:31 | 59.78220 | -6.56657 | 33095 ft | 493 kts | 134° |
| 2026-05-06 11:31 | 59.73684 | -6.46454 | 33094 ft | 492 kts | 134° |
| 2026-05-06 11:32 | 59.69139 | -6.36285 | 33042 ft | 492 kts | 135° |
| 2026-05-06 11:32 | 59.64589 | -6.26178 | 33050 ft | 492 kts | 135° |
| 2026-05-06 11:33 | 59.60045 | -6.16133 | 33057 ft | 493 kts | 135° |
| 2026-05-06 11:33 | 59.55479 | -6.06026 | 33068 ft | 493 kts | 135° |
| 2026-05-06 11:34 | 59.50902 | -5.95950 | 33086 ft | 493 kts | 135° |
| 2026-05-06 11:34 | 59.46299 | -5.85908 | 33046 ft | 493 kts | 135° |
| 2026-05-06 11:35 | 59.41710 | -5.75924 | 33075 ft | 492 kts | 136° |
| 2026-05-06 11:35 | 59.37121 | -5.65971 | 33086 ft | 491 kts | 136° |
| 2026-05-06 11:36 | 59.32540 | -5.56068 | 33090 ft | 490 kts | 136° |
| 2026-05-06 11:36 | 59.27944 | -5.46179 | 33089 ft | 490 kts | 136° |
| 2026-05-06 11:37 | 59.23347 | -5.36350 | 33088 ft | 489 kts | 136° |
| 2026-05-06 11:37 | 59.18752 | -5.26567 | 33052 ft | 489 kts | 136° |
| 2026-05-06 11:38 | 59.14184 | -5.16868 | 33077 ft | 488 kts | 136° |
| 2026-05-06 11:38 | 59.09581 | -5.07146 | 33101 ft | 488 kts | 137° |
| 2026-05-06 11:39 | 59.04975 | -4.97461 | 33089 ft | 487 kts | 137° |
| 2026-05-06 11:39 | 59.00363 | -4.87788 | 33085 ft | 487 kts | 137° |
| 2026-05-06 11:40 | 58.95786 | -4.78209 | 33087 ft | 487 kts | 137° |
| 2026-05-06 11:40 | 58.91166 | -4.68611 | 33055 ft | 486 kts | 137° |
| 2026-05-06 11:41 | 58.86551 | -4.59064 | 33081 ft | 486 kts | 137° |
| 2026-05-06 11:41 | 58.81925 | -4.49550 | 33085 ft | 485 kts | 137° |
| 2026-05-06 11:42 | 58.77294 | -4.40061 | 33107 ft | 485 kts | 137° |
| 2026-05-06 11:42 | 58.72674 | -4.30625 | 33090 ft | 484 kts | 137° |
| 2026-05-06 11:43 | 58.68072 | -4.21251 | 33095 ft | 484 kts | 137° |
| 2026-05-06 11:43 | 58.63438 | -4.11862 | 33081 ft | 484 kts | 138° |
| 2026-05-06 11:44 | 58.56484 | -3.97838 | 33102 ft | 484 kts | 138° |
| 2026-05-06 11:44 | 58.51832 | -3.88518 | 33093 ft | 484 kts | 138° |
| 2026-05-06 11:45 | 58.47181 | -3.79230 | 33097 ft | 484 kts | 138° |
| 2026-05-06 11:45 | 58.42520 | -3.69953 | 33094 ft | 484 kts | 138° |
| 2026-05-06 11:46 | 58.37860 | -3.60723 | 33081 ft | 482 kts | 138° |
| 2026-05-06 11:46 | 58.33202 | -3.51518 | 33091 ft | 481 kts | 138° |
| 2026-05-06 11:47 | 58.28580 | -3.42433 | 33094 ft | 480 kts | 138° |
| 2026-05-06 11:47 | 58.23926 | -3.33329 | 33094 ft | 480 kts | 139° |
| 2026-05-06 11:48 | 58.19275 | -3.24266 | 33101 ft | 480 kts | 139° |
| 2026-05-06 11:48 | 58.15398 | -3.16751 | 33057 ft | 479 kts | 138° |
| 2026-05-06 11:49 | 58.10742 | -3.07737 | 33100 ft | 478 kts | 138° |
| 2026-05-06 11:49 | 58.06093 | -2.98763 | 33112 ft | 477 kts | 139° |
| 2026-05-06 11:50 | 58.01449 | -2.89861 | 33110 ft | 476 kts | 139° |
| 2026-05-06 11:50 | 57.96805 | -2.80976 | 33105 ft | 475 kts | 139° |
| 2026-05-06 11:51 | 57.92166 | -2.72136 | 33106 ft | 475 kts | 139° |
| 2026-05-06 11:51 | 57.87520 | -2.63315 | 33074 ft | 474 kts | 139° |
| 2026-05-06 11:52 | 57.82876 | -2.54545 | 33097 ft | 473 kts | 139° |
| 2026-05-06 11:52 | 57.78235 | -2.45808 | 33097 ft | 472 kts | 139° |
| 2026-05-06 11:53 | 57.73596 | -2.37106 | 33109 ft | 471 kts | 139° |
| 2026-05-06 11:53 | 57.68965 | -2.28450 | 33103 ft | 471 kts | 139° |
| 2026-05-06 11:54 | 57.64327 | -2.19811 | 33102 ft | 470 kts | 139° |
| 2026-05-06 11:54 | 57.59721 | -2.11263 | 33093 ft | 469 kts | 139° |
| 2026-05-06 11:55 | 57.55083 | -2.02705 | 33115 ft | 469 kts | 139° |
| 2026-05-06 11:55 | 57.50447 | -1.94173 | 33113 ft | 468 kts | 139° |
| 2026-05-06 11:56 | 57.45817 | -1.85680 | 33117 ft | 468 kts | 139° |
| 2026-05-06 11:56 | 57.41206 | -1.77246 | 33119 ft | 467 kts | 139° |
| 2026-05-06 11:57 | 57.36568 | -1.68809 | 33089 ft | 466 kts | 139° |
| 2026-05-06 11:57 | 57.31936 | -1.60418 | 33115 ft | 465 kts | 139° |
| 2026-05-06 11:58 | 57.27312 | -1.52064 | 33122 ft | 464 kts | 139° |
| 2026-05-06 11:58 | 57.22697 | -1.43752 | 33125 ft | 463 kts | 139° |
| 2026-05-06 11:59 | 57.18097 | -1.35508 | 33126 ft | 463 kts | 139° |
| 2026-05-06 11:59 | 57.13442 | -1.27209 | 33125 ft | 463 kts | 139° |
| 2026-05-06 12:00 | 57.08841 | -1.19029 | 33098 ft | 462 kts | 139° |
| 2026-05-06 12:00 | 57.04221 | -1.10829 | 33124 ft | 461 kts | 139° |
| 2026-05-06 12:01 | 56.99608 | -1.02677 | 33125 ft | 460 kts | 139° |
| 2026-05-06 12:01 | 56.95001 | -0.94557 | 33129 ft | 459 kts | 139° |
| 2026-05-06 12:02 | 56.90395 | -0.86472 | 33125 ft | 458 kts | 140° |
| 2026-05-06 12:02 | 56.85784 | -0.78423 | 33125 ft | 458 kts | 140° |
| 2026-05-06 12:03 | 56.81174 | -0.70396 | 33110 ft | 457 kts | 140° |
| 2026-05-06 12:03 | 56.76567 | -0.62391 | 33111 ft | 457 kts | 140° |
| 2026-05-06 12:04 | 56.71954 | -0.54422 | 33125 ft | 457 kts | 140° |
| 2026-05-06 12:04 | 56.67346 | -0.46484 | 33109 ft | 456 kts | 140° |
| 2026-05-06 12:05 | 56.62729 | -0.38557 | 33114 ft | 456 kts | 140° |
| 2026-05-06 12:05 | 56.58111 | -0.30648 | 33117 ft | 456 kts | 140° |
| 2026-05-06 12:06 | 56.53521 | -0.22823 | 33113 ft | 455 kts | 140° |
| 2026-05-06 12:06 | 56.48877 | -0.14939 | 33118 ft | 455 kts | 140° |
| 2026-05-06 12:07 | 56.44291 | -0.07172 | 33118 ft | 454 kts | 140° |
| 2026-05-06 12:07 | 56.39670 | 0.00616 | 33114 ft | 454 kts | 140° |
| 2026-05-06 12:08 | 56.35053 | 0.08382 | 33116 ft | 453 kts | 140° |
| 2026-05-06 12:08 | 56.30438 | 0.16121 | 33109 ft | 453 kts | 140° |
| 2026-05-06 12:09 | 56.25817 | 0.23845 | 33102 ft | 452 kts | 140° |
| 2026-05-06 12:09 | 56.21200 | 0.31532 | 33107 ft | 452 kts | 140° |
| 2026-05-06 12:10 | 56.16578 | 0.39192 | 33111 ft | 452 kts | 141° |
| 2026-05-06 12:10 | 56.11958 | 0.46819 | 33111 ft | 452 kts | 141° |
| 2026-05-06 12:11 | 56.07354 | 0.54402 | 33107 ft | 452 kts | 141° |
| 2026-05-06 12:11 | 56.02725 | 0.62006 | 33108 ft | 451 kts | 141° |
| 2026-05-06 12:12 | 55.98093 | 0.69578 | 33107 ft | 451 kts | 141° |
| 2026-05-06 12:12 | 55.93464 | 0.77133 | 33109 ft | 450 kts | 141° |
| 2026-05-06 12:13 | 55.88836 | 0.84648 | 33110 ft | 450 kts | 141° |
| 2026-05-06 12:13 | 55.84195 | 0.92160 | 33105 ft | 450 kts | 141° |
| 2026-05-06 12:14 | 55.79556 | 0.99635 | 33102 ft | 450 kts | 141° |
| 2026-05-06 12:14 | 55.74922 | 1.07090 | 33083 ft | 450 kts | 141° |
| 2026-05-06 12:15 | 55.70305 | 1.14488 | 33088 ft | 449 kts | 142° |
| 2026-05-06 12:15 | 55.65643 | 1.21941 | 33099 ft | 448 kts | 142° |
| 2026-05-06 12:16 | 55.61041 | 1.29281 | 33101 ft | 448 kts | 142° |
| 2026-05-06 12:16 | 55.56403 | 1.36629 | 33095 ft | 447 kts | 142° |
| 2026-05-06 12:17 | 55.51764 | 1.43957 | 33094 ft | 447 kts | 142° |
| 2026-05-06 12:17 | 55.47120 | 1.51278 | 33082 ft | 447 kts | 142° |
| 2026-05-06 12:18 | 55.42479 | 1.58564 | 33086 ft | 447 kts | 142° |
| 2026-05-06 12:18 | 55.37839 | 1.65841 | 33088 ft | 446 kts | 142° |
| 2026-05-06 12:19 | 55.33232 | 1.73050 | 33083 ft | 446 kts | 143° |
| 2026-05-06 12:19 | 55.28568 | 1.80310 | 33084 ft | 445 kts | 143° |
| 2026-05-06 12:20 | 55.23946 | 1.87452 | 33053 ft | 445 kts | 143° |
| 2026-05-06 12:20 | 55.19309 | 1.94620 | 33075 ft | 444 kts | 143° |
| 2026-05-06 12:21 | 55.14674 | 2.01773 | 33077 ft | 444 kts | 143° |
| 2026-05-06 12:21 | 55.10035 | 2.08898 | 33076 ft | 444 kts | 143° |
| 2026-05-06 12:22 | 55.05396 | 2.16008 | 33080 ft | 443 kts | 143° |
| 2026-05-06 12:22 | 55.00790 | 2.23048 | 33066 ft | 442 kts | 143° |
| 2026-05-06 12:23 | 54.96156 | 2.30086 | 33060 ft | 441 kts | 143° |
| 2026-05-06 12:23 | 54.91531 | 2.37087 | 33071 ft | 441 kts | 143° |
| 2026-05-06 12:24 | 54.86905 | 2.44084 | 33072 ft | 440 kts | 143° |
| 2026-05-06 12:24 | 54.82273 | 2.51071 | 33074 ft | 440 kts | 143° |
| 2026-05-06 12:25 | 54.77643 | 2.58026 | 33071 ft | 440 kts | 143° |
| 2026-05-06 12:25 | 54.73042 | 2.64921 | 33061 ft | 440 kts | 143° |
| 2026-05-06 12:26 | 54.68401 | 2.71855 | 33031 ft | 440 kts | 143° |
| 2026-05-06 12:26 | 54.63755 | 2.78769 | 33033 ft | 440 kts | 143° |
| 2026-05-06 12:27 | 54.59112 | 2.85655 | 33037 ft | 440 kts | 143° |
| 2026-05-06 12:27 | 54.54462 | 2.92519 | 33043 ft | 440 kts | 143° |
| 2026-05-06 12:28 | 54.49811 | 2.99370 | 33039 ft | 440 kts | 143° |
| 2026-05-06 12:28 | 54.45160 | 3.06216 | 33024 ft | 440 kts | 143° |
| 2026-05-06 12:29 | 54.40510 | 3.13025 | 33143 ft | 444 kts | 143° |
| 2026-05-06 12:29 | 54.38150 | 3.16480 | 33332 ft | 446 kts | 143° |
| 2026-05-06 12:29 | 54.35787 | 3.19934 | 33556 ft | 446 kts | 143° |
| 2026-05-06 12:30 | 54.33427 | 3.23378 | 33849 ft | 445 kts | 143° |
| 2026-05-06 12:30 | 54.31069 | 3.26816 | 34105 ft | 444 kts | 143° |
| 2026-05-06 12:30 | 54.28749 | 3.30189 | 34306 ft | 444 kts | 143° |
| 2026-05-06 12:30 | 54.26393 | 3.33606 | 34498 ft | 444 kts | 143° |
| 2026-05-06 12:31 | 54.24028 | 3.37028 | 34686 ft | 444 kts | 143° |
| 2026-05-06 12:31 | 54.21660 | 3.40446 | 34875 ft | 444 kts | 143° |
| 2026-05-06 12:31 | 54.19298 | 3.43851 | 34976 ft | 445 kts | 142° |
| 2026-05-06 12:31 | 54.16923 | 3.47269 | 35006 ft | 445 kts | 143° |
| 2026-05-06 12:32 | 54.12212 | 3.54036 | 35005 ft | 445 kts | 143° |
| 2026-05-06 12:32 | 54.07473 | 3.60834 | 34999 ft | 445 kts | 143° |
| 2026-05-06 12:33 | 54.02726 | 3.67625 | 35000 ft | 445 kts | 143° |
| 2026-05-06 12:33 | 53.97980 | 3.74376 | 34993 ft | 443 kts | 143° |
| 2026-05-06 12:34 | 53.93277 | 3.81051 | 34991 ft | 444 kts | 143° |
| 2026-05-06 12:34 | 53.88542 | 3.87768 | 34999 ft | 443 kts | 143° |
| 2026-05-06 12:35 | 53.83805 | 3.94449 | 35003 ft | 443 kts | 143° |
| 2026-05-06 12:35 | 53.79795 | 3.99844 | 35001 ft | 442 kts | 145° |
| 2026-05-06 12:36 | 53.74889 | 4.06129 | 34996 ft | 442 kts | 146° |
| 2026-05-06 12:36 | 53.69958 | 4.12410 | 34986 ft | 442 kts | 146° |
| 2026-05-06 12:37 | 53.65088 | 4.18670 | 34979 ft | 441 kts | 145° |
| 2026-05-06 12:37 | 53.60216 | 4.24952 | 34988 ft | 441 kts | 145° |
| 2026-05-06 12:38 | 53.55330 | 4.31234 | 34997 ft | 440 kts | 145° |
| 2026-05-06 12:38 | 53.50474 | 4.37430 | 34993 ft | 440 kts | 145° |
| 2026-05-06 12:39 | 53.45592 | 4.43652 | 34994 ft | 440 kts | 146° |
| 2026-05-06 12:39 | 53.40707 | 4.49858 | 34993 ft | 439 kts | 146° |
| 2026-05-06 12:40 | 53.35833 | 4.56039 | 34984 ft | 439 kts | 146° |
| 2026-05-06 12:40 | 53.30947 | 4.62208 | 34983 ft | 439 kts | 146° |
| 2026-05-06 12:41 | 53.26066 | 4.68350 | 34981 ft | 439 kts | 146° |
| 2026-05-06 12:41 | 53.21178 | 4.74495 | 34968 ft | 439 kts | 146° |
| 2026-05-06 12:42 | 53.16295 | 4.80615 | 34968 ft | 439 kts | 146° |
| 2026-05-06 12:42 | 53.11446 | 4.86677 | 34962 ft | 439 kts | 145° |
| 2026-05-06 12:43 | 53.06551 | 4.92780 | 34946 ft | 439 kts | 145° |
| 2026-05-06 12:43 | 53.01660 | 4.98855 | 34944 ft | 439 kts | 146° |
| 2026-05-06 12:44 | 52.96756 | 5.04920 | 34947 ft | 438 kts | 146° |
| 2026-05-06 12:44 | 52.91899 | 5.10922 | 34937 ft | 438 kts | 146° |
| 2026-05-06 12:45 | 52.87007 | 5.16941 | 34948 ft | 438 kts | 146° |
| 2026-05-06 12:46 | 52.79659 | 5.25956 | 34941 ft | 438 kts | 146° |
| 2026-05-06 12:46 | 52.74769 | 5.31940 | 34934 ft | 437 kts | 146° |
| 2026-05-06 12:47 | 52.69873 | 5.37902 | 34914 ft | 437 kts | 146° |
| 2026-05-06 12:47 | 52.65014 | 5.43798 | 34920 ft | 437 kts | 146° |
| 2026-05-06 12:48 | 52.60110 | 5.49726 | 34910 ft | 437 kts | 146° |
| 2026-05-06 12:48 | 52.55208 | 5.55654 | 34913 ft | 437 kts | 146° |
| 2026-05-06 12:49 | 52.50315 | 5.61561 | 34919 ft | 437 kts | 145° |
| 2026-05-06 12:49 | 52.45415 | 5.67454 | 34912 ft | 436 kts | 146° |
| 2026-05-06 12:50 | 52.40518 | 5.73318 | 34913 ft | 436 kts | 146° |
| 2026-05-06 12:50 | 52.35606 | 5.79202 | 34901 ft | 436 kts | 145° |
| 2026-05-06 12:51 | 52.30729 | 5.85012 | 34910 ft | 436 kts | 146° |
| 2026-05-06 12:51 | 52.25813 | 5.90856 | 34915 ft | 436 kts | 146° |
| 2026-05-06 12:52 | 52.20896 | 5.96674 | 34898 ft | 437 kts | 146° |
| 2026-05-06 12:52 | 52.15975 | 6.02482 | 34904 ft | 437 kts | 146° |
| 2026-05-06 12:53 | 52.11050 | 6.08279 | 34907 ft | 436 kts | 146° |
| 2026-05-06 12:53 | 52.06126 | 6.14062 | 34900 ft | 436 kts | 146° |
| 2026-05-06 12:54 | 52.01237 | 6.19816 | 34895 ft | 436 kts | 145° |
| 2026-05-06 12:54 | 51.96313 | 6.25583 | 34900 ft | 437 kts | 145° |
| 2026-05-06 12:55 | 51.91509 | 6.31637 | 34890 ft | 437 kts | 142° |
| 2026-05-06 12:55 | 51.86822 | 6.37922 | 34872 ft | 438 kts | 142° |
| 2026-05-06 12:56 | 51.82134 | 6.44152 | 34861 ft | 439 kts | 142° |
| 2026-05-06 12:56 | 51.77374 | 6.50345 | 34865 ft | 439 kts | 143° |
| 2026-05-06 12:57 | 51.72598 | 6.56524 | 34873 ft | 436 kts | 143° |
| 2026-05-06 12:57 | 51.70256 | 6.59544 | 34756 ft | 428 kts | 143° |
| 2026-05-06 12:57 | 51.67946 | 6.62525 | 34396 ft | 422 kts | 143° |
| 2026-05-06 12:57 | 51.65667 | 6.65468 | 34041 ft | 417 kts | 142° |
| 2026-05-06 12:58 | 51.63415 | 6.68375 | 33640 ft | 413 kts | 143° |
| 2026-05-06 12:58 | 51.61183 | 6.71249 | 33223 ft | 408 kts | 143° |
| 2026-05-06 12:58 | 51.58973 | 6.74090 | 32815 ft | 405 kts | 143° |
| 2026-05-06 12:58 | 51.56809 | 6.76870 | 32404 ft | 402 kts | 143° |
| 2026-05-06 12:59 | 51.54627 | 6.79666 | 32035 ft | 400 kts | 143° |
| 2026-05-06 12:59 | 51.52460 | 6.82439 | 31746 ft | 397 kts | 143° |
| 2026-05-06 12:59 | 51.50307 | 6.85189 | 31455 ft | 395 kts | 142° |
| 2026-05-06 12:59 | 51.48156 | 6.87928 | 31170 ft | 392 kts | 142° |
| 2026-05-06 13:00 | 51.46021 | 6.90645 | 30888 ft | 391 kts | 142° |
| 2026-05-06 13:00 | 51.43900 | 6.93340 | 30602 ft | 389 kts | 142° |
| 2026-05-06 13:00 | 51.41785 | 6.96029 | 30330 ft | 387 kts | 142° |
| 2026-05-06 13:00 | 51.39685 | 6.98699 | 30055 ft | 382 kts | 141° |
| 2026-05-06 13:01 | 51.37640 | 7.01306 | 29763 ft | 379 kts | 141° |
| 2026-05-06 13:01 | 51.35577 | 7.03937 | 29410 ft | 379 kts | 142° |
| 2026-05-06 13:01 | 51.33507 | 7.06562 | 29060 ft | 379 kts | 142° |
| 2026-05-06 13:01 | 51.31440 | 7.09170 | 28702 ft | 377 kts | 142° |
| 2026-05-06 13:02 | 51.29386 | 7.11756 | 28330 ft | 374 kts | 142° |
| 2026-05-06 13:02 | 51.27343 | 7.14324 | 27971 ft | 373 kts | 144° |
| 2026-05-06 13:02 | 51.25110 | 7.16396 | 27617 ft | 369 kts | 154° |
| 2026-05-06 13:02 | 51.22824 | 7.18221 | 27263 ft | 365 kts | 154° |
| 2026-05-06 13:03 | 51.20547 | 7.20026 | 26913 ft | 363 kts | 154° |
| 2026-05-06 13:03 | 51.18293 | 7.21805 | 26571 ft | 362 kts | 154° |
| 2026-05-06 13:03 | 51.16041 | 7.23578 | 26223 ft | 360 kts | 154° |
| 2026-05-06 13:03 | 51.13791 | 7.25349 | 25897 ft | 359 kts | 154° |
| 2026-05-06 13:04 | 51.11557 | 7.27108 | 25566 ft | 357 kts | 154° |
| 2026-05-06 13:04 | 51.09495 | 7.29196 | 25226 ft | 357 kts | 138° |
| 2026-05-06 13:04 | 51.07922 | 7.32220 | 24860 ft | 356 kts | 121° |
| 2026-05-06 13:04 | 51.06643 | 7.35594 | 24495 ft | 355 kts | 128° |
| 2026-05-06 13:05 | 51.05123 | 7.38685 | 24144 ft | 355 kts | 129° |
| 2026-05-06 13:05 | 51.03598 | 7.41758 | 23769 ft | 353 kts | 129° |
| 2026-05-06 13:05 | 51.02074 | 7.44820 | 23414 ft | 351 kts | 129° |
| 2026-05-06 13:05 | 51.00563 | 7.47851 | 23004 ft | 350 kts | 130° |
| 2026-05-06 13:06 | 50.99049 | 7.50878 | 22571 ft | 348 kts | 130° |
| 2026-05-06 13:06 | 50.97542 | 7.53880 | 22169 ft | 347 kts | 130° |
| 2026-05-06 13:06 | 50.96039 | 7.56871 | 21756 ft | 346 kts | 131° |
| 2026-05-06 13:06 | 50.94541 | 7.59854 | 21354 ft | 345 kts | 131° |
| 2026-05-06 13:07 | 50.93046 | 7.62834 | 20961 ft | 343 kts | 131° |
| 2026-05-06 13:07 | 50.91580 | 7.65749 | 20582 ft | 342 kts | 131° |
| 2026-05-06 13:07 | 50.90098 | 7.68688 | 20198 ft | 340 kts | 131° |
| 2026-05-06 13:07 | 50.88622 | 7.71606 | 19820 ft | 338 kts | 132° |
| 2026-05-06 13:08 | 50.87153 | 7.74512 | 19448 ft | 337 kts | 132° |
| 2026-05-06 13:08 | 50.85688 | 7.77415 | 19074 ft | 336 kts | 132° |
| 2026-05-06 13:08 | 50.84231 | 7.80300 | 18712 ft | 334 kts | 132° |
| 2026-05-06 13:08 | 50.82786 | 7.83158 | 18354 ft | 333 kts | 132° |
| 2026-05-06 13:09 | 50.81340 | 7.86012 | 17985 ft | 332 kts | 133° |
| 2026-05-06 13:09 | 50.79901 | 7.88850 | 17606 ft | 330 kts | 132° |
| 2026-05-06 13:09 | 50.78468 | 7.91673 | 17342 ft | 334 kts | 132° |
| 2026-05-06 13:09 | 50.76939 | 7.94670 | 17071 ft | 363 kts | 132° |
| 2026-05-06 13:10 | 50.75326 | 7.97825 | 16784 ft | 373 kts | 133° |
| 2026-05-06 13:10 | 50.73724 | 8.00968 | 16532 ft | 369 kts | 132° |
| 2026-05-06 13:10 | 50.72118 | 8.04133 | 16265 ft | 358 kts | 132° |
| 2026-05-06 13:10 | 50.70601 | 8.07115 | 16015 ft | 347 kts | 132° |
| 2026-05-06 13:11 | 50.69105 | 8.10042 | 15755 ft | 338 kts | 133° |
| 2026-05-06 13:11 | 50.67644 | 8.12895 | 15499 ft | 329 kts | 133° |
| 2026-05-06 13:11 | 50.66226 | 8.15668 | 15247 ft | 321 kts | 133° |
| 2026-05-06 13:11 | 50.64833 | 8.18387 | 14996 ft | 317 kts | 133° |
| 2026-05-06 13:12 | 50.63444 | 8.21090 | 14753 ft | 316 kts | 133° |
| 2026-05-06 13:12 | 50.62062 | 8.23771 | 14498 ft | 315 kts | 133° |
| 2026-05-06 13:12 | 50.60683 | 8.26442 | 14247 ft | 314 kts | 133° |
| 2026-05-06 13:12 | 50.59308 | 8.29109 | 14007 ft | 313 kts | 133° |
| 2026-05-06 13:13 | 50.57955 | 8.31728 | 13777 ft | 312 kts | 132° |
| 2026-05-06 13:13 | 50.56587 | 8.34376 | 13523 ft | 310 kts | 132° |
| 2026-05-06 13:13 | 50.55227 | 8.37001 | 13251 ft | 309 kts | 132° |
| 2026-05-06 13:13 | 50.53872 | 8.39614 | 12972 ft | 307 kts | 132° |
| 2026-05-06 13:14 | 50.52523 | 8.42213 | 12706 ft | 306 kts | 132° |
| 2026-05-06 13:14 | 50.51177 | 8.44805 | 12442 ft | 304 kts | 132° |
| 2026-05-06 13:14 | 50.49843 | 8.47381 | 12182 ft | 303 kts | 132° |
| 2026-05-06 13:14 | 50.48513 | 8.49946 | 11924 ft | 302 kts | 132° |
| 2026-05-06 13:15 | 50.47186 | 8.52504 | 11673 ft | 301 kts | 132° |
| 2026-05-06 13:15 | 50.45869 | 8.55039 | 11406 ft | 300 kts | 132° |
| 2026-05-06 13:15 | 50.44570 | 8.57540 | 11166 ft | 298 kts | 132° |
| 2026-05-06 13:15 | 50.43258 | 8.60055 | 10912 ft | 297 kts | 132° |
| 2026-05-06 13:16 | 50.41951 | 8.62553 | 10661 ft | 295 kts | 133° |
| 2026-05-06 13:16 | 50.40649 | 8.65044 | 10419 ft | 298 kts | 133° |
| 2026-05-06 13:16 | 50.39320 | 8.67575 | 10177 ft | 302 kts | 133° |
| 2026-05-06 13:16 | 50.37990 | 8.70109 | 9935 ft | 299 kts | 133° |
| 2026-05-06 13:17 | 50.36682 | 8.72610 | 9685 ft | 293 kts | 133° |
| 2026-05-06 13:17 | 50.35397 | 8.75063 | 9429 ft | 290 kts | 133° |
| 2026-05-06 13:17 | 50.34116 | 8.77502 | 9145 ft | 288 kts | 133° |
| 2026-05-06 13:17 | 50.32847 | 8.79913 | 8855 ft | 286 kts | 133° |
| 2026-05-06 13:18 | 50.31498 | 8.82185 | 8565 ft | 280 kts | 147° |
| 2026-05-06 13:18 | 50.30392 | 8.83154 | 8371 ft | 272 kts | 160° |
| 2026-05-06 13:18 | 50.28069 | 8.84484 | 8000 ft | 264 kts | 163° |
| 2026-05-06 13:18 | 50.26335 | 8.85405 | 7718 ft | 260 kts | 164° |
| 2026-05-06 13:19 | 50.24635 | 8.86302 | 7441 ft | 256 kts | 164° |
| 2026-05-06 13:19 | 50.23521 | 8.86891 | 7206 ft | 252 kts | 164° |
| 2026-05-06 13:19 | 50.21345 | 8.88048 | 6697 ft | 246 kts | 164° |
| 2026-05-06 13:19 | 50.19744 | 8.88911 | 6315 ft | 241 kts | 164° |
| 2026-05-06 13:20 | 50.18134 | 8.89597 | 5965 ft | 238 kts | 180° |
| 2026-05-06 13:20 | 50.16568 | 8.89071 | 5704 ft | 229 kts | 210° |
| 2026-05-06 13:20 | 50.15712 | 8.88085 | 5513 ft | 226 kts | 221° |
| 2026-05-06 13:20 | 50.14566 | 8.86430 | 5161 ft | 223 kts | 224° |
| 2026-05-06 13:21 | 50.13460 | 8.84776 | 4830 ft | 217 kts | 224° |
| 2026-05-06 13:21 | 50.12392 | 8.83189 | 4558 ft | 213 kts | 224° |
| 2026-05-06 13:21 | 50.11362 | 8.81543 | 4301 ft | 211 kts | 235° |
| 2026-05-06 13:21 | 50.10759 | 8.79478 | 4085 ft | 210 kts | 250° |
| 2026-05-06 13:22 | 50.10266 | 8.77342 | 3820 ft | 206 kts | 249° |
| 2026-05-06 13:22 | 50.09788 | 8.75293 | 3520 ft | 199 kts | 249° |
| 2026-05-06 13:22 | 50.09310 | 8.73269 | 3236 ft | 195 kts | 249° |
| 2026-05-06 13:22 | 50.08852 | 8.71331 | 2959 ft | 186 kts | 249° |
| 2026-05-06 13:23 | 50.08413 | 8.69479 | 2722 ft | 176 kts | 248° |
| 2026-05-06 13:23 | 50.08005 | 8.67757 | 2461 ft | 164 kts | 248° |
| 2026-05-06 13:23 | 50.07626 | 8.66161 | 2239 ft | 150 kts | 249° |
| 2026-05-06 13:23 | 50.07274 | 8.64678 | 2026 ft | 143 kts | 248° |
| 2026-05-06 13:24 | 50.06934 | 8.63249 | 1833 ft | 140 kts | 248° |
| 2026-05-06 13:24 | 50.06597 | 8.61829 | 1629 ft | 139 kts | 248° |
| 2026-05-06 13:24 | 50.06260 | 8.60414 | 1413 ft | 140 kts | 249° |
| 2026-05-06 13:24 | 50.05914 | 8.58984 | 1206 ft | 141 kts | 246° |
| 2026-05-06 13:25 | 50.05585 | 8.57568 | 967 ft | 143 kts | 249° |
| 2026-05-06 13:25 | 50.05240 | 8.56106 | 816 ft | 144 kts | 246° |
| 2026-05-06 13:25 | 50.04889 | 8.54621 | 599 ft | 145 kts | 246° |
| 2026-05-06 13:25 | 50.04537 | 8.53168 | 377 ft | 143 kts | 248° |
| 2026-05-06 13:26 | 50.04220 | 8.51859 | 334 ft | 102 kts | 250° |
| 2026-05-06 13:26 | 50.04078 | 8.51266 | 329 ft | 25 kts | 249° |
| 2026-05-06 13:26 | 50.03992 | 8.51036 | 327 ft | 25 kts | 228° |
| 2026-05-06 13:26 | 50.03862 | 8.50860 | 326 ft | 20 kts | 218° |
| 2026-05-06 13:27 | 50.03779 | 8.50905 | 334 ft | 14 kts | 89° |
| 2026-05-06 13:27 | 50.03820 | 8.51086 | 334 ft | 22 kts | 69° |
| 2026-05-06 13:27 | 50.03882 | 8.51346 | 331 ft | 27 kts | 69° |
| 2026-05-06 13:27 | 50.03949 | 8.51628 | 336 ft | 28 kts | 69° |
| 2026-05-06 13:28 | 50.04018 | 8.51911 | 336 ft | 28 kts | 69° |
| 2026-05-06 13:28 | 50.04084 | 8.52192 | 351 ft | 27 kts | 69° |
| 2026-05-06 13:28 | 50.04149 | 8.52462 | 351 ft | 26 kts | 70° |
| 2026-05-06 13:28 | 50.04212 | 8.52726 | 356 ft | 28 kts | 69° |
| 2026-05-06 13:29 | 50.04287 | 8.53038 | 358 ft | 31 kts | 69° |
| 2026-05-06 13:29 | 50.04358 | 8.53333 | 372 ft | 27 kts | 69° |
| 2026-05-06 13:29 | 50.04401 | 8.53610 | 375 ft | 27 kts | 84° |
| 2026-05-06 13:29 | 50.04421 | 8.53908 | 375 ft | 28 kts | 84° |
| 2026-05-06 13:30 | 50.04440 | 8.54197 | 375 ft | 26 kts | 84° |
| 2026-05-06 13:30 | 50.04453 | 8.54465 | 370 ft | 25 kts | 95° |
| 2026-05-06 13:30 | 50.04379 | 8.54698 | 361 ft | 15 kts | 136° |
| 2026-05-06 13:30 | 50.04360 | 8.54724 | 360 ft | 0 kts | 140° |
| 2026-05-06 13:31 | 50.04359 | 8.54726 | 360 ft | 1 kts | 141° |
| 2026-05-06 13:31 | 50.04329 | 8.54759 | 358 ft | 10 kts | 149° |
| 2026-05-06 13:31 | 50.04242 | 8.54813 | 355 ft | 15 kts | 160° |
| 2026-05-06 13:32 | 50.04146 | 8.54866 | 355 ft | 14 kts | 160° |
| 2026-05-06 13:32 | 50.04062 | 8.54914 | 357 ft | 12 kts | 159° |
| 2026-05-06 13:32 | 50.03991 | 8.54958 | 354 ft | 10 kts | 159° |
| 2026-05-06 13:32 | 50.03928 | 8.54995 | 355 ft | 8 kts | 160° |
| 2026-05-06 13:33 | 50.03894 | 8.55014 | 357 ft | 6 kts | 160° |
| 2026-05-06 13:33 | 50.03853 | 8.55069 | 358 ft | 9 kts | 110° |
| 2026-05-06 13:33 | 50.03868 | 8.55192 | 356 ft | 15 kts | 70° |
| 2026-05-06 13:33 | 50.03912 | 8.55381 | 358 ft | 22 kts | 70° |
| 2026-05-06 13:34 | 50.03964 | 8.55594 | 354 ft | 20 kts | 70° |
| 2026-05-06 13:34 | 50.04009 | 8.55783 | 355 ft | 17 kts | 69° |
| 2026-05-06 13:34 | 50.04046 | 8.55938 | 357 ft | 14 kts | 69° |
| 2026-05-06 13:34 | 50.04079 | 8.56078 | 357 ft | 14 kts | 70° |
| 2026-05-06 13:35 | 50.04114 | 8.56222 | 357 ft | 15 kts | 69° |
| 2026-05-06 13:35 | 50.04150 | 8.56374 | 356 ft | 15 kts | 70° |
| 2026-05-06 13:35 | 50.04186 | 8.56528 | 359 ft | 15 kts | 69° |
| 2026-05-06 13:35 | 50.04223 | 8.56680 | 358 ft | 15 kts | 70° |
| 2026-05-06 13:36 | 50.04275 | 8.56802 | 359 ft | 13 kts | 23° |
| 2026-05-06 13:36 | 50.04344 | 8.56827 | 360 ft | 5 kts | 12° |
| 2026-05-06 13:36 | 50.04352 | 8.56829 | 360 ft | 0 kts | 12° |
| 2026-05-06 13:39 | 50.04367 | 8.56834 | 365 ft | 5 kts | 11° |
| 2026-05-06 13:39 | 50.04423 | 8.56847 | 362 ft | 11 kts | 7° |
| 2026-05-06 13:39 | 50.04520 | 8.56880 | 359 ft | 17 kts | 13° |
| 2026-05-06 13:39 | 50.04643 | 8.56928 | 356 ft | 18 kts | 20° |
| 2026-05-06 13:40 | 50.04750 | 8.57003 | 364 ft | 16 kts | 25° |
| 2026-05-06 13:40 | 50.04839 | 8.57066 | 360 ft | 11 kts | 24° |
| 2026-05-06 13:40 | 50.04898 | 8.57071 | 359 ft | 6 kts | 340° |
| 2026-05-06 13:40 | 50.04918 | 8.57063 | 362 ft | 1 kts | 1° |
| 2026-05-06 13:41 | 50.04920 | 8.57066 | 362 ft | 0 kts | 25° |
| 2026-05-06 13:41 | 50.04921 | 8.57071 | 362 ft | 0 kts | 53° |
| 2026-05-06 13:41 | 50.04920 | 8.57078 | 358 ft | 0 kts | 95° |
| 2026-05-06 13:41 | 50.04919 | 8.57082 | 359 ft | 0 kts | 100° |
| 2026-05-06 13:42 | 50.04918 | 8.57084 | 356 ft | 0 kts | 100° |
| 2026-05-06 13:45 | 50.04918 | 8.57085 | 356 ft | 0 kts | 100° |